Time;durP1;ratioP1;P1;durP2;ratioP2;P2;SDS_P1;SDS_P2;PMS_P1;PMS_P2;Temp;Humidity;BMP_temperature;BMP_pressure;BME280_temperature;BME280_humidity;BME280_pressure;Samples;Min_cycle;Max_cycle;Signal;HPM_P1;HPM_P2
2023/11/21 00:01:03;;;;;;;2.97;1.70;;;;;;;11.52;100.00;100263.94;4984638;28;20613;-73
2023/11/21 00:03:29;;;;;;;3.97;1.55;;;;;;;11.52;100.00;100260.44;4989169;28;20026;-73
2023/11/21 00:05:55;;;;;;;4.45;1.85;;;;;;;11.53;100.00;100265.50;4964899;28;20034;-75
2023/11/21 00:08:20;;;;;;;3.22;2.03;;;;;;;11.49;100.00;100267.38;4959282;28;20054;-74
2023/11/21 00:10:49;;;;;;;5.47;1.92;;;;;;;11.64;100.00;100277.16;4988689;28;20042;-74
2023/11/21 00:13:14;;;;;;;3.92;1.98;;;;;;;11.69;100.00;100281.47;4970024;28;20042;-74
2023/11/21 00:15:40;;;;;;;3.67;2.30;;;;;;;11.68;100.00;100277.22;4969633;28;20549;-75
2023/11/21 00:18:06;;;;;;;5.32;2.72;;;;;;;11.59;100.00;100284.81;4969270;28;20036;-74
2023/11/21 00:20:31;;;;;;;4.55;2.28;;;;;;;11.67;100.00;100273.75;4987474;28;20493;-74
2023/11/21 00:22:57;;;;;;;10.65;3.22;;;;;;;11.61;100.00;100285.22;4964046;28;20489;-75
2023/11/21 00:25:25;;;;;;;6.88;2.95;;;;;;;11.43;100.00;100287.72;4988738;28;20038;-73
2023/11/21 00:27:51;;;;;;;4.70;2.85;;;;;;;11.35;100.00;100296.88;4986847;28;20046;-74
2023/11/21 00:30:17;;;;;;;5.43;2.47;;;;;;;11.15;100.00;100289.34;4967607;28;20081;-74
2023/11/21 00:32:43;;;;;;;3.25;2.03;;;;;;;11.03;100.00;100292.25;4968479;28;20125;-74
2023/11/21 00:35:08;;;;;;;3.97;1.92;;;;;;;11.19;100.00;100298.25;4964465;28;20038;-74
2023/11/21 00:37:34;;;;;;;3.35;2.08;;;;;;;11.05;100.00;100287.28;4966511;28;20085;-75
2023/11/21 00:39:59;;;;;;;4.75;2.13;;;;;;;10.77;100.00;100279.59;4973135;28;20868;-74
2023/11/21 00:42:25;;;;;;;5.82;2.53;;;;;;;10.74;100.00;100294.56;4964656;28;20026;-74
2023/11/21 00:44:50;;;;;;;5.60;2.33;;;;;;;10.83;100.00;100302.41;4970184;28;20121;-74
2023/11/21 00:47:16;;;;;;;5.63;1.90;;;;;;;10.77;100.00;100309.22;4975520;28;20030;-73
2023/11/21 00:49:42;;;;;;;5.63;2.47;;;;;;;10.79;100.00;100309.66;4985834;28;20046;-74
2023/11/21 00:52:08;;;;;;;5.45;2.28;;;;;;;10.98;100.00;100320.28;4972724;28;20505;-74
2023/11/21 00:54:33;;;;;;;5.43;2.70;;;;;;;11.00;100.00;100312.63;4962604;28;20080;-73
2023/11/21 00:56:59;;;;;;;7.22;3.25;;;;;;;10.86;100.00;100323.97;4995596;28;20072;-74
2023/11/21 00:59:24;;;;;;;3.72;2.28;;;;;;;10.90;100.00;100330.19;4966928;28;20031;-74
2023/11/21 01:01:50;;;;;;;3.20;2.33;;;;;;;10.92;100.00;100327.13;4970560;28;20070;-74
2023/11/21 01:04:15;;;;;;;3.78;2.40;;;;;;;10.84;100.00;100339.72;4968049;28;20524;-73
2023/11/21 01:06:41;;;;;;;4.97;1.95;;;;;;;10.75;100.00;100344.63;4987431;28;20101;-74
2023/11/21 01:09:08;;;;;;;4.47;2.80;;;;;;;10.68;100.00;100357.97;4975330;28;20129;-73
2023/11/21 01:11:37;;;;;;;4.72;2.60;;;;;;;10.71;100.00;100354.56;4985724;28;20470;-75
2023/11/21 01:14:04;;;;;;;7.00;2.95;;;;;;;10.77;100.00;100358.50;4970422;28;20160;-74
2023/11/21 01:16:32;;;;;;;4.57;2.78;;;;;;;10.86;100.00;100369.00;4985990;28;20041;-73
2023/11/21 01:18:59;;;;;;;7.13;2.88;;;;;;;10.47;100.00;100370.34;4959180;28;20030;-74
2023/11/21 01:21:25;;;;;;;5.97;3.53;;;;;;;10.70;100.00;100371.84;4985414;28;20045;-73
2023/11/21 01:23:50;;;;;;;3.38;2.65;;;;;;;10.83;99.34;100372.44;4970068;28;20035;-76
2023/11/21 01:26:15;;;;;;;4.40;2.17;;;;;;;10.84;98.48;100385.53;4968545;28;20117;-73
2023/11/21 01:28:41;;;;;;;4.60;2.72;;;;;;;10.76;99.02;100388.50;4968245;28;20050;-73
2023/11/21 01:31:07;;;;;;;7.57;2.72;;;;;;;10.69;99.54;100385.66;4966712;28;20031;-73
2023/11/21 01:33:33;;;;;;;3.67;2.17;;;;;;;10.51;99.53;100380.00;4973409;28;20422;-74
2023/11/21 01:35:59;;;;;;;4.70;2.10;;;;;;;10.51;98.51;100382.69;4988631;28;20081;-74
2023/11/21 01:38:25;;;;;;;3.15;2.17;;;;;;;10.38;98.75;100383.25;4982896;28;20082;-73
2023/11/21 01:40:51;;;;;;;3.00;1.92;;;;;;;10.50;98.36;100388.44;4979222;28;20073;-74
2023/11/21 01:43:17;;;;;;;5.05;2.35;;;;;;;10.38;98.59;100397.50;4977976;28;20580;-73
2023/11/21 01:45:45;;;;;;;4.13;2.25;;;;;;;10.24;98.23;100394.56;4982378;28;20142;-73
2023/11/21 01:48:12;;;;;;;3.45;2.17;;;;;;;10.42;98.04;100401.03;4985114;28;20116;-72
2023/11/21 01:50:41;;;;;;;3.17;1.75;;;;;;;10.54;97.26;100389.28;4985316;28;20025;-73
2023/11/21 01:53:09;;;;;;;5.72;2.38;;;;;;;10.37;97.59;100401.34;4988341;28;20042;-71
2023/11/21 01:55:34;;;;;;;4.05;2.47;;;;;;;10.46;97.56;100401.06;4985743;28;20030;-75
2023/11/21 01:58:00;;;;;;;3.80;1.92;;;;;;;10.53;95.93;100395.81;4986277;28;20030;-73
2023/11/21 02:00:28;;;;;;;5.43;2.13;;;;;;;10.32;96.15;100400.81;4991178;28;20057;-73
2023/11/21 02:02:55;;;;;;;4.00;2.08;;;;;;;10.18;97.19;100401.34;4986043;28;20022;-74
2023/11/21 02:05:21;;;;;;;3.03;1.75;;;;;;;10.40;96.48;100402.50;4985132;28;20624;-73
2023/11/21 02:07:47;;;;;;;5.38;2.20;;;;;;;10.36;96.95;100409.75;4988671;28;20420;-73
2023/11/21 02:10:15;;;;;;;2.10;1.30;;;;;;;10.35;96.17;100416.28;4990013;28;20503;-74
2023/11/21 02:12:44;;;;;;;6.07;2.13;;;;;;;10.41;95.67;100423.72;4984940;28;20121;-73
2023/11/21 02:15:19;;;;;;;3.90;1.90;;;;;;;10.36;94.31;100424.00;4984459;28;20101;-73
2023/11/21 02:17:51;;;;;;;5.25;1.90;;;;;;;10.28;95.88;100429.63;4985259;28;20035;-74
2023/11/21 02:20:17;;;;;;;3.30;1.75;;;;;;;10.31;95.90;100431.59;4989025;28;20036;-72
2023/11/21 02:23:01;;;;;;;2.63;1.77;;;;;;;10.26;96.26;100438.03;4987245;28;20113;-73
2023/11/21 02:25:31;;;;;;;2.33;1.58;;;;;;;10.29;95.45;100436.53;4987903;28;20031;-73
2023/11/21 02:28:02;;;;;;;3.58;1.75;;;;;;;10.26;95.56;100443.41;4993067;28;20034;-72
2023/11/21 02:30:33;;;;;;;4.22;2.10;;;;;;;10.31;95.91;100445.81;4984769;28;20030;-72
2023/11/21 02:32:58;;;;;;;2.70;2.10;;;;;;;10.45;95.27;100440.66;4983862;28;20031;-73
2023/11/21 02:35:28;;;;;;;3.30;1.88;;;;;;;10.43;94.55;100447.56;4981077;28;20065;-73
2023/11/21 02:37:54;;;;;;;2.78;1.83;;;;;;;10.49;94.64;100454.22;4973649;28;20027;-73
2023/11/21 02:40:24;;;;;;;3.53;1.85;;;;;;;10.55;94.74;100456.22;4970604;28;20383;-73
2023/11/21 02:42:53;;;;;;;5.57;2.53;;;;;;;10.32;94.08;100454.66;4971531;28;20046;-72
2023/11/21 02:45:20;;;;;;;2.67;2.08;;;;;;;10.17;94.31;100463.59;4968866;28;20414;-72
2023/11/21 02:47:46;;;;;;;4.63;2.25;;;;;;;10.22;95.51;100466.03;4974054;28;20022;-73
2023/11/21 02:50:12;;;;;;;3.75;2.05;;;;;;;10.39;94.23;100476.34;4987305;28;20029;-72
2023/11/21 02:52:39;;;;;;;3.35;1.80;;;;;;;10.30;94.90;100479.25;4968619;28;20034;-72
2023/11/21 02:55:07;;;;;;;3.30;2.38;;;;;;;10.33;95.28;100481.25;4986332;28;20034;-72
2023/11/21 02:57:33;;;;;;;4.07;2.17;;;;;;;10.28;93.86;100478.06;4966854;28;20026;-72
2023/11/21 02:59:59;;;;;;;3.42;1.95;;;;;;;10.29;93.94;100480.41;4964512;28;20033;-74
2023/11/21 03:02:25;;;;;;;2.45;1.67;;;;;;;10.25;94.72;100476.84;4973850;28;20049;-73
2023/11/21 03:04:51;;;;;;;2.67;1.60;;;;;;;10.34;94.54;100484.69;4971015;28;20533;-73
2023/11/21 03:07:19;;;;;;;2.30;1.77;;;;;;;10.32;94.20;100489.66;4967374;28;20394;-73
2023/11/21 03:09:45;;;;;;;2.97;1.80;;;;;;;10.14;94.12;100475.09;4971712;28;20036;-73
2023/11/21 03:12:12;;;;;;;4.20;2.38;;;;;;;10.17;94.37;100477.06;4987144;28;20030;-73
2023/11/21 03:14:38;;;;;;;3.83;2.20;;;;;;;10.27;94.28;100473.81;4975171;28;20034;-73
2023/11/21 03:17:07;;;;;;;2.97;2.03;;;;;;;10.15;94.38;100480.13;4957283;28;20079;-73
2023/11/21 03:19:32;;;;;;;4.95;2.30;;;;;;;10.16;94.21;100483.59;4967541;28;20038;-73
2023/11/21 03:21:58;;;;;;;2.88;2.13;;;;;;;10.16;94.37;100483.59;4988609;28;20069;-73
2023/11/21 03:24:24;;;;;;;4.18;2.30;;;;;;;10.10;93.61;100483.09;4969078;28;20048;-74
2023/11/21 03:26:50;;;;;;;3.33;2.28;;;;;;;10.12;94.47;100491.59;4984532;28;20038;-73
2023/11/21 03:29:17;;;;;;;3.67;1.95;;;;;;;10.13;94.34;100485.06;4973447;28;20617;-73
2023/11/21 03:31:42;;;;;;;4.10;2.20;;;;;;;10.06;93.63;100494.91;4987975;28;20041;-74
2023/11/21 03:34:14;;;;;;;3.65;2.22;;;;;;;9.82;94.71;100504.00;4976906;28;20034;-74
2023/11/21 03:36:40;;;;;;;4.10;2.30;;;;;;;10.03;94.32;100499.84;4953092;28;20527;-73
2023/11/21 03:39:06;;;;;;;5.00;2.10;;;;;;;10.13;93.93;100509.28;4987528;28;20117;-71
2023/11/21 03:41:34;;;;;;;6.55;2.67;;;;;;;10.08;94.25;100530.28;4983952;28;20374;-72
2023/11/21 03:44:03;;;;;;;4.50;2.45;;;;;;;10.16;94.30;100535.50;4989617;28;20065;-73
2023/11/21 03:46:28;;;;;;;3.97;2.22;;;;;;;10.14;93.73;100535.09;4984906;28;21243;-72
2023/11/21 03:48:57;;;;;;;5.95;2.63;;;;;;;10.23;93.85;100543.72;4984678;28;20084;-73
2023/11/21 03:51:22;;;;;;;6.15;2.38;;;;;;;10.30;93.86;100549.22;4986341;28;20030;-73
2023/11/21 03:53:48;;;;;;;5.57;2.22;;;;;;;10.28;93.37;100556.88;4974968;28;20394;-73
2023/11/21 03:56:17;;;;;;;4.47;2.33;;;;;;;10.29;93.32;100555.75;4974095;28;20034;-73
2023/11/21 03:58:42;;;;;;;3.95;1.73;;;;;;;10.15;94.06;100555.47;4961866;28;20060;-72
2023/11/21 04:01:08;;;;;;;4.85;2.17;;;;;;;10.20;93.60;100560.53;4998136;28;20061;-73
2023/11/21 04:03:33;;;;;;;2.80;1.70;;;;;;;10.24;92.88;100563.34;4976191;28;20034;-73
2023/11/21 04:05:59;;;;;;;3.42;1.83;;;;;;;10.19;93.07;100568.97;4990415;28;20030;-73
2023/11/21 04:08:26;;;;;;;2.78;1.25;;;;;;;10.20;93.27;100575.94;4989915;28;20030;-72
2023/11/21 04:10:54;;;;;;;4.00;2.45;;;;;;;10.32;93.27;100568.47;4972702;28;20042;-73
2023/11/21 04:13:20;;;;;;;6.07;2.50;;;;;;;10.30;93.14;100581.50;4991662;28;20042;-73
2023/11/21 04:15:48;;;;;;;4.75;1.73;;;;;;;10.40;92.81;100586.34;4975783;28;20073;-73
2023/11/21 04:18:14;;;;;;;4.00;1.98;;;;;;;10.37;92.64;100586.28;4989778;28;20065;-72
2023/11/21 04:20:39;;;;;;;7.60;2.50;;;;;;;10.36;92.81;100595.47;4996835;28;20088;-73
2023/11/21 04:23:10;;;;;;;2.95;1.88;;;;;;;10.30;92.57;100592.28;4994522;28;20485;-72
2023/11/21 04:25:35;;;;;;;4.75;1.90;;;;;;;10.17;93.45;100601.63;4990273;28;20026;-72
2023/11/21 04:28:00;;;;;;;3.67;2.10;;;;;;;10.20;93.61;100600.91;4974144;28;20456;-74
2023/11/21 04:30:26;;;;;;;4.05;1.92;;;;;;;10.21;93.01;100602.47;4973711;28;20038;-74
2023/11/21 04:33:00;;;;;;;5.13;2.90;;;;;;;10.27;92.91;100611.06;4996202;28;20037;-74
2023/11/21 04:35:26;;;;;;;3.08;1.77;;;;;;;10.21;92.46;100612.47;4994046;28;20030;-73
2023/11/21 04:37:51;;;;;;;4.95;3.33;;;;;;;10.24;92.69;100617.91;4991566;28;20113;-74
2023/11/21 04:40:17;;;;;;;4.18;1.98;;;;;;;10.27;93.11;100622.59;4989882;28;20034;-73
2023/11/21 04:42:42;;;;;;;3.65;1.95;;;;;;;10.25;92.07;100630.25;4992464;28;20416;-73
2023/11/21 04:45:09;;;;;;;4.93;2.13;;;;;;;10.28;92.80;100631.47;4975523;28;20042;-74
2023/11/21 04:47:35;;;;;;;3.35;2.03;;;;;;;10.23;92.88;100632.50;4959030;28;20018;-72
2023/11/21 04:50:02;;;;;;;4.25;2.28;;;;;;;10.16;93.19;100635.06;4974942;28;20413;-73
2023/11/21 04:52:28;;;;;;;5.22;2.30;;;;;;;10.19;93.37;100636.25;4991651;28;20449;-73
2023/11/21 04:54:54;;;;;;;2.22;1.55;;;;;;;10.21;92.29;100642.06;4990274;28;20121;-74
2023/11/21 04:57:21;;;;;;;3.40;2.13;;;;;;;10.07;92.92;100647.09;4970363;28;20068;-74
2023/11/21 04:59:48;;;;;;;2.92;2.00;;;;;;;10.13;92.72;100643.03;4994136;28;20031;-73
2023/11/21 05:02:14;;;;;;;4.13;2.00;;;;;;;10.20;92.52;100635.91;4979386;28;20053;-74
2023/11/21 05:04:39;;;;;;;3.50;1.85;;;;;;;10.11;92.47;100639.91;4977233;28;20030;-73
2023/11/21 05:07:05;;;;;;;3.25;2.13;;;;;;;10.14;92.57;100639.22;4977928;28;20489;-73
2023/11/21 05:09:32;;;;;;;4.40;2.53;;;;;;;10.20;93.13;100641.28;4990905;28;20509;-72
2023/11/21 05:11:58;;;;;;;4.40;2.10;;;;;;;10.20;92.70;100646.66;4991631;28;20462;-73
2023/11/21 05:14:23;;;;;;;2.80;1.92;;;;;;;10.23;92.61;100658.63;4974258;28;20113;-73
2023/11/21 05:16:50;;;;;;;3.53;2.03;;;;;;;10.24;92.07;100663.66;4978101;28;20034;-73
2023/11/21 05:19:16;;;;;;;3.63;2.20;;;;;;;10.16;92.08;100664.66;4994425;28;20049;-73
2023/11/21 05:21:41;;;;;;;4.93;2.28;;;;;;;10.12;92.72;100668.41;4974508;28;20038;-73
2023/11/21 05:24:07;;;;;;;3.45;2.15;;;;;;;10.14;92.39;100674.22;4991812;28;20042;-73
2023/11/21 05:26:32;;;;;;;4.18;2.47;;;;;;;10.10;93.03;100670.66;4992052;28;20034;-73
2023/11/21 05:28:58;;;;;;;3.72;2.25;;;;;;;10.08;92.98;100681.75;4974673;28;20072;-73
2023/11/21 05:31:23;;;;;;;3.65;2.30;;;;;;;10.08;93.20;100680.97;4991318;28;20039;-74
2023/11/21 05:33:48;;;;;;;2.95;1.95;;;;;;;10.16;92.50;100674.63;4989998;28;20683;-73
2023/11/21 05:36:14;;;;;;;3.15;2.10;;;;;;;10.18;92.18;100683.91;4958815;28;20117;-73
2023/11/21 05:38:39;;;;;;;2.92;1.73;;;;;;;10.18;92.56;100686.59;4966329;28;20564;-74
2023/11/21 05:41:05;;;;;;;3.53;2.30;;;;;;;10.20;93.02;100697.78;4989089;28;20085;-73
2023/11/21 05:43:32;;;;;;;2.92;1.90;;;;;;;10.14;92.20;100691.16;4990562;28;20035;-73
2023/11/21 05:45:57;;;;;;;2.75;1.98;;;;;;;10.12;92.42;100703.38;4995201;28;20160;-73
2023/11/21 05:48:26;;;;;;;3.90;2.25;;;;;;;10.10;92.38;100702.94;4991809;28;20129;-74
2023/11/21 05:50:52;;;;;;;3.50;2.35;;;;;;;10.09;92.73;100709.41;4977425;28;20129;-73
2023/11/21 05:53:18;;;;;;;3.40;1.92;;;;;;;10.08;92.17;100705.19;4980989;28;20126;-73
2023/11/21 05:55:43;;;;;;;4.20;2.47;;;;;;;10.12;92.33;100703.38;4981933;28;20022;-73
2023/11/21 05:58:08;;;;;;;3.20;2.00;;;;;;;10.13;92.56;100716.47;4968318;28;20164;-72
2023/11/21 06:00:34;;;;;;;3.90;2.55;;;;;;;10.15;92.22;100719.59;4993024;28;20061;-73
2023/11/21 06:03:01;;;;;;;3.75;2.40;;;;;;;10.12;92.73;100724.91;4960554;28;20118;-73
2023/11/21 06:05:27;;;;;;;4.10;2.13;;;;;;;10.07;92.05;100731.28;4960078;28;20097;-74
2023/11/21 06:07:54;;;;;;;2.95;2.08;;;;;;;10.09;92.03;100734.41;4978701;28;20027;-73
2023/11/21 06:10:23;;;;;;;4.15;2.20;;;;;;;10.07;92.06;100730.50;4967965;28;20018;-73
2023/11/21 06:12:49;;;;;;;3.72;1.92;;;;;;;10.10;91.72;100744.09;4988686;28;20038;-72
2023/11/21 06:15:15;;;;;;;3.80;2.47;;;;;;;10.13;92.29;100754.16;4991355;28;20046;-73
2023/11/21 06:17:41;;;;;;;2.90;2.03;;;;;;;10.13;92.41;100754.16;4963481;28;20057;-73
2023/11/21 06:20:09;;;;;;;4.20;1.83;;;;;;;10.13;92.48;100756.03;4988307;28;20034;-73
2023/11/21 06:22:36;;;;;;;4.90;2.42;;;;;;;10.06;92.52;100763.94;4974580;28;20121;-74
2023/11/21 06:25:03;;;;;;;5.88;2.30;;;;;;;10.04;92.51;100773.13;4958614;28;20182;-73
2023/11/21 06:27:29;;;;;;;4.38;2.28;;;;;;;10.00;92.85;100766.91;4971350;28;20117;-73
2023/11/21 06:29:54;;;;;;;4.15;2.22;;;;;;;9.99;92.85;100769.91;4960010;28;20030;-73
2023/11/21 06:32:23;;;;;;;10.20;2.40;;;;;;;9.95;93.15;100777.91;4988344;28;20109;-73
2023/11/21 06:34:49;;;;;;;3.58;2.33;;;;;;;10.09;92.98;100782.84;4995806;28;20141;-72
2023/11/21 06:37:15;;;;;;;3.92;2.08;;;;;;;10.07;92.75;100784.31;4985781;28;20034;-71
2023/11/21 06:39:41;;;;;;;4.32;2.05;;;;;;;10.00;92.79;100787.63;4988255;28;20026;-69
2023/11/21 06:42:07;;;;;;;4.30;2.63;;;;;;;9.95;93.04;100791.34;4974765;28;20097;-72
2023/11/21 06:44:37;;;;;;;7.68;2.92;;;;;;;9.98;93.00;100798.75;4965476;28;20096;-73
2023/11/21 06:47:02;;;;;;;4.07;2.38;;;;;;;10.05;93.33;100795.44;4971944;28;20043;-72
2023/11/21 06:49:28;;;;;;;2.90;2.05;;;;;;;10.07;93.15;100798.56;4966869;28;20713;-72
2023/11/21 06:51:55;;;;;;;5.45;2.65;;;;;;;10.14;92.83;100798.78;4986863;28;20034;-72
2023/11/21 06:54:20;;;;;;;4.53;2.35;;;;;;;10.17;93.03;100798.06;4973244;28;20042;-73
2023/11/21 06:56:50;;;;;;;6.78;2.67;;;;;;;10.11;92.73;100807.53;4987520;28;20085;-73
2023/11/21 06:59:15;;;;;;;6.10;2.75;;;;;;;10.10;93.33;100810.56;4969262;28;20501;-73
2023/11/21 07:01:44;;;;;;;5.80;2.75;;;;;;;10.03;93.61;100817.31;4992497;28;20018;-72
2023/11/21 07:04:09;;;;;;;4.13;2.10;;;;;;;10.02;93.70;100818.44;4990733;28;20155;-73
2023/11/21 07:06:35;;;;;;;4.15;1.90;;;;;;;10.06;93.10;100821.22;4991688;28;20053;-73
2023/11/21 07:09:01;;;;;;;3.22;2.20;;;;;;;10.13;92.79;100818.72;4991652;28;20034;-72
2023/11/21 07:11:27;;;;;;;3.42;1.90;;;;;;;10.13;93.27;100821.41;4992364;28;20113;-73
2023/11/21 07:13:52;;;;;;;8.30;2.72;;;;;;;10.14;93.33;100825.69;4992708;28;20400;-72
2023/11/21 07:16:18;;;;;;;4.20;2.15;;;;;;;10.09;92.82;100839.34;4994625;28;20121;-73
2023/11/21 07:18:49;;;;;;;5.95;2.25;;;;;;;10.11;93.13;100845.19;4990882;28;20026;-73
2023/11/21 07:21:15;;;;;;;2.65;2.03;;;;;;;10.07;92.77;100856.97;4989625;28;20039;-73
2023/11/21 07:23:41;;;;;;;5.25;2.65;;;;;;;10.15;92.90;100853.34;4999031;28;20031;-73
2023/11/21 07:26:10;;;;;;;6.10;3.05;;;;;;;10.17;93.00;100859.97;4992888;28;20022;-73
2023/11/21 07:28:36;;;;;;;7.13;3.55;;;;;;;10.08;92.93;100858.53;4991598;28;20077;-74
2023/11/21 07:31:01;;;;;;;5.35;3.03;;;;;;;10.08;94.02;100872.00;4994905;28;20022;-73
2023/11/21 07:33:27;;;;;;;7.82;3.00;;;;;;;10.09;93.72;100885.09;4974220;28;20675;-72
2023/11/21 07:35:52;;;;;;;6.78;3.13;;;;;;;10.13;93.87;100877.91;4991667;28;20488;-73
2023/11/21 07:38:18;;;;;;;5.22;3.33;;;;;;;10.15;93.68;100886.44;4990180;28;20527;-73
2023/11/21 07:40:43;;;;;;;3.85;2.60;;;;;;;10.14;93.40;100887.56;4992655;28;20057;-73
2023/11/21 07:43:10;;;;;;;5.07;2.67;;;;;;;10.14;93.71;100890.28;4992244;28;20164;-73
2023/11/21 07:45:36;;;;;;;4.50;2.53;;;;;;;10.16;93.73;100896.09;4991477;28;20105;-73
2023/11/21 07:48:03;;;;;;;5.43;2.67;;;;;;;10.18;93.25;100884.97;4993376;28;20527;-73
2023/11/21 07:50:29;;;;;;;4.85;2.72;;;;;;;10.12;93.34;100894.41;4991360;28;20038;-72
2023/11/21 07:52:55;;;;;;;6.13;2.97;;;;;;;10.10;93.79;100899.38;4992000;28;20109;-73
2023/11/21 07:55:21;;;;;;;3.88;2.13;;;;;;;9.92;93.35;100904.25;4989881;28;20092;-73
2023/11/21 07:57:46;;;;;;;3.10;2.42;;;;;;;9.94;94.01;100907.38;4990006;28;20093;-73
2023/11/21 08:00:12;;;;;;;4.05;2.20;;;;;;;9.93;94.41;100905.78;4991972;28;20037;-74
2023/11/21 08:02:41;;;;;;;3.88;2.28;;;;;;;9.99;94.33;100909.81;4990966;28;20117;-73
2023/11/21 08:05:08;;;;;;;4.07;2.60;;;;;;;10.03;93.99;100908.78;4993943;28;20034;-73
2023/11/21 08:07:34;;;;;;;6.50;2.55;;;;;;;10.07;93.66;100914.25;4991403;28;20053;-74
2023/11/21 08:09:59;;;;;;;3.58;1.85;;;;;;;10.07;94.29;100914.25;4994465;28;20461;-73
2023/11/21 08:12:26;;;;;;;4.28;2.20;;;;;;;10.07;93.83;100922.31;4989498;28;20054;-74
2023/11/21 08:14:51;;;;;;;3.22;2.17;;;;;;;10.02;94.17;100927.97;4991666;28;20046;-73
2023/11/21 08:17:17;;;;;;;5.07;2.70;;;;;;;10.13;93.59;100928.25;4998326;28;20092;-74
2023/11/21 08:19:42;;;;;;;5.72;2.35;;;;;;;10.14;93.26;100927.94;4989506;28;20038;-74
2023/11/21 08:22:08;;;;;;;4.75;3.10;;;;;;;10.10;92.86;100932.44;4987469;28;20133;-74
2023/11/21 08:24:33;;;;;;;3.92;2.08;;;;;;;10.20;93.24;100934.59;4989580;28;20064;-73
2023/11/21 08:26:59;;;;;;;3.72;2.25;;;;;;;10.18;92.23;100936.84;4973798;28;20022;-73
2023/11/21 08:29:24;;;;;;;4.25;2.05;;;;;;;10.13;92.68;100931.75;4988924;28;20034;-71
2023/11/21 08:31:50;;;;;;;2.55;2.33;;;;;;;10.12;92.74;100942.84;4990845;28;20828;-71
2023/11/21 08:34:15;;;;;;;3.53;2.20;;;;;;;10.19;92.21;100945.72;4989178;28;20042;-73
2023/11/21 08:36:42;;;;;;;5.78;2.10;;;;;;;10.21;91.61;100954.22;4990616;28;20034;-73
2023/11/21 08:39:09;;;;;;;2.20;1.50;;;;;;;10.16;92.13;100957.97;4991742;28;20416;-73
2023/11/21 08:41:34;;;;;;;4.07;2.10;;;;;;;10.14;92.41;100956.75;4970582;28;20038;-73
2023/11/21 08:44:00;;;;;;;3.88;2.33;;;;;;;10.15;91.56;100961.78;4989648;28;20646;-73
2023/11/21 08:46:28;;;;;;;3.45;2.00;;;;;;;10.23;92.66;100960.84;4990906;28;20022;-74
2023/11/21 08:48:53;;;;;;;4.85;2.67;;;;;;;10.27;91.71;100969.00;4990337;28;20397;-75
2023/11/21 08:51:19;;;;;;;3.10;1.85;;;;;;;10.32;91.14;100976.81;4988650;28;20045;-74
2023/11/21 08:53:44;;;;;;;3.30;1.90;;;;;;;10.27;91.54;100980.56;4993250;28;20080;-74
2023/11/21 08:56:16;;;;;;;2.97;2.13;;;;;;;10.32;91.06;100988.38;4989246;28;20041;-73
2023/11/21 08:58:42;;;;;;;4.22;1.67;;;;;;;10.30;90.42;100984.50;4989161;28;20132;-73
2023/11/21 09:01:07;;;;;;;4.13;2.45;;;;;;;10.29;91.24;100988.28;4990306;28;20066;-72
2023/11/21 09:03:33;;;;;;;2.35;1.88;;;;;;;10.34;91.22;100991.50;4990883;28;20026;-73
2023/11/21 09:05:59;;;;;;;2.78;1.95;;;;;;;10.38;90.71;100995.09;4993366;28;20030;-73
2023/11/21 09:08:25;;;;;;;4.75;1.80;;;;;;;10.44;90.75;100995.63;4992728;28;20044;-74
2023/11/21 09:10:50;;;;;;;3.55;2.05;;;;;;;10.42;90.14;101006.72;4991894;28;20022;-72
2023/11/21 09:13:17;;;;;;;4.38;2.08;;;;;;;10.45;90.66;101006.03;4989258;28;20563;-73
2023/11/21 09:15:46;;;;;;;3.65;2.03;;;;;;;10.45;90.48;101019.50;4990160;28;20531;-72
2023/11/21 09:18:15;;;;;;;2.78;1.98;;;;;;;10.54;90.38;101022.81;4985996;28;20494;-74
2023/11/21 09:20:42;;;;;;;2.88;1.98;;;;;;;10.45;89.66;101022.19;4998398;28;20069;-73
2023/11/21 09:23:07;;;;;;;3.35;1.90;;;;;;;10.45;90.63;101030.25;4995283;28;20030;-72
2023/11/21 09:25:32;;;;;;;2.38;1.45;;;;;;;10.44;90.55;101027.91;4994295;28;20393;-72
2023/11/21 09:27:58;;;;;;;2.05;1.48;;;;;;;10.46;90.18;101029.16;4992966;28;20501;-74
2023/11/21 09:30:24;;;;;;;2.00;1.40;;;;;;;10.52;89.98;101033.16;4977840;28;20049;-73
2023/11/21 09:32:50;;;;;;;2.30;1.52;;;;;;;10.45;89.68;101045.66;4992922;28;20026;-73
2023/11/21 09:35:17;;;;;;;1.88;1.35;;;;;;;10.52;89.42;101041.25;4976040;28;20038;-74
2023/11/21 09:37:45;;;;;;;2.17;1.55;;;;;;;10.47;89.39;101049.56;4975134;28;20031;-72
2023/11/21 09:40:16;;;;;;;1.77;1.48;;;;;;;10.45;88.75;101054.50;4994761;28;20022;-72
2023/11/21 09:43:07;;;;;;;2.03;1.33;;;;;;;10.54;89.33;101057.84;4977843;28;20031;-73
2023/11/21 09:45:37;;;;;;;3.38;1.33;;;;;;;10.68;88.29;101060.13;4975433;28;20089;-73
2023/11/21 09:48:09;;;;;;;1.42;0.85;;;;;;;10.59;87.79;101059.47;4961170;28;20030;-72
2023/11/21 09:50:36;;;;;;;1.85;1.10;;;;;;;10.58;88.04;101056.03;4979162;28;20421;-73
2023/11/21 09:53:10;;;;;;;3.17;1.40;;;;;;;10.55;87.85;101062.06;4988889;28;20035;-72
2023/11/21 09:55:40;;;;;;;3.35;1.48;;;;;;;10.55;87.99;101069.41;4995918;28;20034;-73
2023/11/21 09:58:11;;;;;;;2.20;1.27;;;;;;;10.64;87.42;101075.41;4991614;28;20117;-72
2023/11/21 10:00:38;;;;;;;;;;;;;;;10.60;86.88;101082.59;4994513;28;20069;-73
2023/11/21 10:03:04;;;;;;;1.58;1.30;;;;;;;10.52;86.76;101089.72;4998099;28;20317;-73
2023/11/21 10:05:29;;;;;;;2.78;1.30;;;;;;;10.64;86.70;101086.19;4976714;28;20039;-73
2023/11/21 10:07:57;;;;;;;1.52;1.20;;;;;;;10.71;86.68;101097.91;4993400;28;20026;-74
2023/11/21 10:10:25;;;;;;;2.67;1.50;;;;;;;10.69;86.58;101083.22;4983767;28;20045;-73
2023/11/21 10:12:55;;;;;;;3.50;1.88;;;;;;;10.76;86.16;101094.97;4994286;28;20449;-73
2023/11/21 10:15:27;;;;;;;2.08;1.90;;;;;;;10.82;87.16;101098.97;4960590;28;20034;-73
2023/11/21 10:17:53;;;;;;;3.38;1.75;;;;;;;10.77;86.58;101107.31;4977042;28;20145;-72
2023/11/21 10:20:25;;;;;;;2.83;1.17;;;;;;;10.71;85.97;101102.50;4996106;28;20038;-73
2023/11/21 10:22:51;;;;;;;3.55;1.65;;;;;;;10.81;86.43;101102.81;4978219;28;20037;-74
2023/11/21 10:25:18;;;;;;;1.63;1.27;;;;;;;10.89;86.28;101095.69;4981235;28;20034;-73
2023/11/21 10:27:51;;;;;;;1.50;1.30;;;;;;;10.84;86.31;101085.94;4991422;28;20022;-73
2023/11/21 10:30:17;;;;;;;2.13;1.05;;;;;;;10.87;86.27;101089.88;4962406;28;20034;-72
2023/11/21 10:32:43;;;;;;;2.30;1.67;;;;;;;10.93;86.06;101096.56;4973556;28;20057;-72
2023/11/21 10:35:12;;;;;;;2.30;1.30;;;;;;;10.88;86.03;101096.81;4981964;28;20124;-73
2023/11/21 10:37:41;;;;;;;2.75;1.50;;;;;;;10.90;86.17;101091.84;4980687;28;20054;-73
2023/11/21 10:40:13;;;;;;;2.35;1.30;;;;;;;10.93;86.22;101099.28;4995813;28;20417;-74
2023/11/21 10:42:39;;;;;;;1.80;1.35;;;;;;;10.93;85.91;101109.25;4979007;28;20026;-73
2023/11/21 10:45:12;;;;;;;3.55;1.52;;;;;;;11.02;86.00;101107.97;4993109;28;20066;-73
2023/11/21 10:47:44;;;;;;;2.15;1.25;;;;;;;11.03;85.30;101111.44;4976046;28;20034;-74
2023/11/21 10:50:10;;;;;;;3.70;2.00;;;;;;;11.07;85.27;101112.31;4967506;28;20041;-73
2023/11/21 10:52:43;;;;;;;2.20;1.50;;;;;;;11.00;84.14;101123.69;4976265;28;20037;-74
2023/11/21 10:55:21;;;;;;;1.38;1.27;;;;;;;11.09;84.17;101120.84;4978130;28;20042;-73
2023/11/21 10:57:53;;;;;;;2.25;0.95;;;;;;;11.03;84.14;101122.22;4975318;28;20034;-73
2023/11/21 11:00:20;;;;;;;2.80;1.42;;;;;;;11.02;84.59;101121.44;4978157;28;20045;-74
2023/11/21 11:02:56;;;;;;;2.47;1.27;;;;;;;11.01;83.61;101114.50;4967292;28;20034;-74
2023/11/21 11:05:26;;;;;;;1.85;1.40;;;;;;;11.01;83.61;101119.88;4995381;28;20031;-74
2023/11/21 11:08:02;;;;;;;3.15;1.70;;;;;;;11.04;84.60;101116.50;4993025;28;20543;-74
2023/11/21 11:10:29;;;;;;;2.58;1.55;;;;;;;10.96;84.00;101125.50;4989852;28;20035;-74
2023/11/21 11:12:57;;;;;;;4.70;1.50;;;;;;;11.03;83.43;101122.22;4975241;28;20069;-73
2023/11/21 11:15:23;;;;;;;5.72;1.73;;;;;;;11.05;83.08;101128.84;4993324;28;20026;-73
2023/11/21 11:17:49;;;;;;;1.27;1.17;;;;;;;10.98;83.05;101134.03;4975683;28;20076;-73
2023/11/21 11:20:22;;;;;;;2.72;1.33;;;;;;;10.95;83.83;101136.63;4977715;28;20045;-75
2023/11/21 11:23:07;;;;;;;3.15;1.60;;;;;;;10.88;84.06;101139.91;4991386;28;20120;-74